sensor_id;sensor_type;location;lat;lon;timestamp;P1;durP1;ratioP1;P2;durP2;ratioP2
6111;SDS011;3086;48.802;9.394;2022-11-20T00:00:07;14.37;;;10.03;;
6111;SDS011;3086;48.802;9.394;2022-11-20T00:03:30;14.03;;;12.43;;
6111;SDS011;3086;48.802;9.394;2022-11-20T00:06:51;12.60;;;9.93;;
6111;SDS011;3086;48.802;9.394;2022-11-20T00:10:14;13.17;;;9.60;;
6111;SDS011;3086;48.802;9.394;2022-11-20T00:13:36;12.70;;;9.60;;
6111;SDS011;3086;48.802;9.394;2022-11-20T00:16:57;17.20;;;11.53;;
6111;SDS011;3086;48.802;9.394;2022-11-20T00:20:19;15.27;;;11.10;;
6111;SDS011;3086;48.802;9.394;2022-11-20T00:23:40;18.07;;;12.60;;
6111;SDS011;3086;48.802;9.394;2022-11-20T00:27:04;16.73;;;12.03;;
6111;SDS011;3086;48.802;9.394;2022-11-20T00:30:25;17.53;;;12.60;;
6111;SDS011;3086;48.802;9.394;2022-11-20T00:33:47;19.17;;;11.90;;
6111;SDS011;3086;48.802;9.394;2022-11-20T00:37:08;20.37;;;11.40;;
6111;SDS011;3086;48.802;9.394;2022-11-20T00:40:30;15.13;;;11.00;;
6111;SDS011;3086;48.802;9.394;2022-11-20T00:43:53;16.33;;;11.63;;
6111;SDS011;3086;48.802;9.394;2022-11-20T00:47:15;17.10;;;11.70;;
6111;SDS011;3086;48.802;9.394;2022-11-20T00:50:37;18.23;;;12.17;;
6111;SDS011;3086;48.802;9.394;2022-11-20T00:53:58;15.23;;;10.60;;
6111;SDS011;3086;48.802;9.394;2022-11-20T00:57:22;16.90;;;11.60;;
6111;SDS011;3086;48.802;9.394;2022-11-20T01:00:45;15.43;;;11.53;;
6111;SDS011;3086;48.802;9.394;2022-11-20T01:04:06;14.60;;;11.73;;
6111;SDS011;3086;48.802;9.394;2022-11-20T01:07:28;16.80;;;11.93;;
6111;SDS011;3086;48.802;9.394;2022-11-20T01:10:49;12.10;;;10.10;;
6111;SDS011;3086;48.802;9.394;2022-11-20T01:14:11;14.60;;;10.93;;
6111;SDS011;3086;48.802;9.394;2022-11-20T01:17:35;13.93;;;10.80;;
6111;SDS011;3086;48.802;9.394;2022-11-20T01:20:59;16.07;;;11.07;;
6111;SDS011;3086;48.802;9.394;2022-11-20T01:24:22;15.10;;;12.47;;
6111;SDS011;3086;48.802;9.394;2022-11-20T01:27:44;21.93;;;10.90;;
6111;SDS011;3086;48.802;9.394;2022-11-20T01:31:15;16.80;;;11.23;;
6111;SDS011;3086;48.802;9.394;2022-11-20T01:34:39;14.30;;;10.90;;
6111;SDS011;3086;48.802;9.394;2022-11-20T01:38:00;11.73;;;9.30;;
6111;SDS011;3086;48.802;9.394;2022-11-20T01:41:22;13.20;;;9.93;;
6111;SDS011;3086;48.802;9.394;2022-11-20T01:48:57;13.20;;;8.20;;
6111;SDS011;3086;48.802;9.394;2022-11-20T01:52:24;8.73;;;7.17;;
6111;SDS011;3086;48.802;9.394;2022-11-20T01:55:47;11.63;;;8.63;;
6111;SDS011;3086;48.802;9.394;2022-11-20T01:59:12;9.30;;;7.70;;
6111;SDS011;3086;48.802;9.394;2022-11-20T02:02:35;8.77;;;6.97;;
6111;SDS011;3086;48.802;9.394;2022-11-20T02:05:59;6.63;;;5.97;;
6111;SDS011;3086;48.802;9.394;2022-11-20T02:09:25;9.00;;;5.93;;
6111;SDS011;3086;48.802;9.394;2022-11-20T02:12:47;12.40;;;5.87;;
6111;SDS011;3086;48.802;9.394;2022-11-20T02:16:27;12.30;;;6.30;;
6111;SDS011;3086;48.802;9.394;2022-11-20T02:19:50;10.27;;;6.07;;
6111;SDS011;3086;48.802;9.394;2022-11-20T02:23:12;5.13;;;4.60;;
6111;SDS011;3086;48.802;9.394;2022-11-20T02:26:40;6.87;;;4.40;;
6111;SDS011;3086;48.802;9.394;2022-11-20T02:30:04;4.53;;;4.10;;
6111;SDS011;3086;48.802;9.394;2022-11-20T02:33:28;4.03;;;3.67;;
6111;SDS011;3086;48.802;9.394;2022-11-20T02:36:49;6.37;;;4.10;;
6111;SDS011;3086;48.802;9.394;2022-11-20T02:40:12;4.10;;;3.80;;
6111;SDS011;3086;48.802;9.394;2022-11-20T02:43:35;6.00;;;4.63;;
6111;SDS011;3086;48.802;9.394;2022-11-20T02:46:57;3.77;;;3.47;;
6111;SDS011;3086;48.802;9.394;2022-11-20T02:50:19;4.37;;;3.60;;
6111;SDS011;3086;48.802;9.394;2022-11-20T02:53:40;4.13;;;3.70;;
6111;SDS011;3086;48.802;9.394;2022-11-20T02:57:02;5.20;;;3.30;;
6111;SDS011;3086;48.802;9.394;2022-11-20T03:00:25;5.50;;;3.53;;
6111;SDS011;3086;48.802;9.394;2022-11-20T03:03:46;3.97;;;3.40;;
6111;SDS011;3086;48.802;9.394;2022-11-20T03:07:08;5.70;;;3.43;;
6111;SDS011;3086;48.802;9.394;2022-11-20T03:10:30;3.90;;;3.60;;
6111;SDS011;3086;48.802;9.394;2022-11-20T03:13:52;4.07;;;3.63;;
6111;SDS011;3086;48.802;9.394;2022-11-20T03:17:14;4.33;;;3.97;;
6111;SDS011;3086;48.802;9.394;2022-11-20T03:20:37;5.07;;;3.73;;
6111;SDS011;3086;48.802;9.394;2022-11-20T03:23:58;4.30;;;3.90;;
6111;SDS011;3086;48.802;9.394;2022-11-20T03:27:20;3.70;;;3.40;;
6111;SDS011;3086;48.802;9.394;2022-11-20T03:30:41;4.00;;;3.60;;
6111;SDS011;3086;48.802;9.394;2022-11-20T03:34:04;4.37;;;3.97;;
6111;SDS011;3086;48.802;9.394;2022-11-20T03:37:25;4.37;;;3.40;;
6111;SDS011;3086;48.802;9.394;2022-11-20T03:40:47;4.67;;;4.00;;
6111;SDS011;3086;48.802;9.394;2022-11-20T03:44:09;3.97;;;3.57;;
6111;SDS011;3086;48.802;9.394;2022-11-20T03:47:31;7.80;;;5.13;;
6111;SDS011;3086;48.802;9.394;2022-11-20T03:51:05;3.50;;;3.20;;
6111;SDS011;3086;48.802;9.394;2022-11-20T03:54:27;3.63;;;3.30;;
6111;SDS011;3086;48.802;9.394;2022-11-20T03:57:49;3.40;;;3.10;;
6111;SDS011;3086;48.802;9.394;2022-11-20T04:01:11;3.80;;;3.50;;
6111;SDS011;3086;48.802;9.394;2022-11-20T04:04:34;6.17;;;3.73;;
6111;SDS011;3086;48.802;9.394;2022-11-20T04:07:57;3.50;;;3.03;;
6111;SDS011;3086;48.802;9.394;2022-11-20T04:11:19;3.90;;;3.50;;
6111;SDS011;3086;48.802;9.394;2022-11-20T04:14:42;5.33;;;3.57;;
6111;SDS011;3086;48.802;9.394;2022-11-20T04:18:04;4.40;;;3.50;;
6111;SDS011;3086;48.802;9.394;2022-11-20T04:21:26;4.83;;;3.70;;
6111;SDS011;3086;48.802;9.394;2022-11-20T04:24:49;3.80;;;3.43;;
6111;SDS011;3086;48.802;9.394;2022-11-20T04:28:11;3.77;;;3.47;;
6111;SDS011;3086;48.802;9.394;2022-11-20T04:31:33;3.87;;;3.50;;
6111;SDS011;3086;48.802;9.394;2022-11-20T04:34:55;4.17;;;3.67;;
6111;SDS011;3086;48.802;9.394;2022-11-20T04:38:16;6.10;;;4.37;;
6111;SDS011;3086;48.802;9.394;2022-11-20T04:41:39;4.57;;;4.17;;
6111;SDS011;3086;48.802;9.394;2022-11-20T04:45:01;5.07;;;3.80;;
6111;SDS011;3086;48.802;9.394;2022-11-20T04:48:22;4.50;;;4.10;;
6111;SDS011;3086;48.802;9.394;2022-11-20T04:51:44;3.70;;;3.40;;
6111;SDS011;3086;48.802;9.394;2022-11-20T04:55:06;3.77;;;3.30;;
6111;SDS011;3086;48.802;9.394;2022-11-20T04:58:29;4.10;;;3.73;;
6111;SDS011;3086;48.802;9.394;2022-11-20T05:01:51;3.47;;;3.17;;
6111;SDS011;3086;48.802;9.394;2022-11-20T05:05:12;3.70;;;3.40;;
6111;SDS011;3086;48.802;9.394;2022-11-20T05:08:34;5.80;;;5.30;;
6111;SDS011;3086;48.802;9.394;2022-11-20T05:11:56;4.00;;;3.60;;
6111;SDS011;3086;48.802;9.394;2022-11-20T05:15:18;4.33;;;3.30;;
6111;SDS011;3086;48.802;9.394;2022-11-20T05:18:54;3.93;;;3.40;;
6111;SDS011;3086;48.802;9.394;2022-11-20T05:22:16;3.90;;;3.50;;
6111;SDS011;3086;48.802;9.394;2022-11-20T05:25:37;3.53;;;3.23;;
6111;SDS011;3086;48.802;9.394;2022-11-20T05:28:59;4.70;;;3.40;;
6111;SDS011;3086;48.802;9.394;2022-11-20T05:32:22;3.20;;;3.00;;
6111;SDS011;3086;48.802;9.394;2022-11-20T05:35:45;3.70;;;3.40;;
6111;SDS011;3086;48.802;9.394;2022-11-20T05:39:08;4.03;;;3.00;;
6111;SDS011;3086;48.802;9.394;2022-11-20T05:42:30;3.57;;;3.00;;
6111;SDS011;3086;48.802;9.394;2022-11-20T05:45:52;3.93;;;3.30;;
6111;SDS011;3086;48.802;9.394;2022-11-20T05:49:15;3.33;;;3.03;;
6111;SDS011;3086;48.802;9.394;2022-11-20T05:52:36;3.43;;;3.13;;
6111;SDS011;3086;48.802;9.394;2022-11-20T05:55:58;3.17;;;2.97;;
6111;SDS011;3086;48.802;9.394;2022-11-20T05:59:20;3.40;;;3.17;;
6111;SDS011;3086;48.802;9.394;2022-11-20T06:02:41;3.20;;;2.90;;
6111;SDS011;3086;48.802;9.394;2022-11-20T06:06:05;3.60;;;3.30;;
6111;SDS011;3086;48.802;9.394;2022-11-20T06:09:27;3.17;;;2.97;;
6111;SDS011;3086;48.802;9.394;2022-11-20T06:12:48;2.83;;;2.63;;
6111;SDS011;3086;48.802;9.394;2022-11-20T06:16:10;3.57;;;3.27;;
6111;SDS011;3086;48.802;9.394;2022-11-20T06:19:32;3.30;;;3.10;;
6111;SDS011;3086;48.802;9.394;2022-11-20T06:22:55;3.20;;;2.90;;
6111;SDS011;3086;48.802;9.394;2022-11-20T06:26:17;3.33;;;3.03;;
6111;SDS011;3086;48.802;9.394;2022-11-20T06:29:40;3.33;;;2.90;;
6111;SDS011;3086;48.802;9.394;2022-11-20T06:33:02;4.57;;;3.47;;
6111;SDS011;3086;48.802;9.394;2022-11-20T06:36:23;3.10;;;2.90;;
6111;SDS011;3086;48.802;9.394;2022-11-20T06:39:46;4.47;;;3.40;;
6111;SDS011;3086;48.802;9.394;2022-11-20T06:43:08;3.10;;;2.90;;
6111;SDS011;3086;48.802;9.394;2022-11-20T06:46:30;2.90;;;2.70;;
6111;SDS011;3086;48.802;9.394;2022-11-20T06:49:52;3.27;;;2.73;;
6111;SDS011;3086;48.802;9.394;2022-11-20T06:53:13;3.30;;;3.00;;
6111;SDS011;3086;48.802;9.394;2022-11-20T06:56:36;4.80;;;3.40;;
6111;SDS011;3086;48.802;9.394;2022-11-20T06:59:58;3.03;;;2.60;;
6111;SDS011;3086;48.802;9.394;2022-11-20T07:03:20;4.73;;;3.23;;
6111;SDS011;3086;48.802;9.394;2022-11-20T07:06:41;4.03;;;3.20;;
6111;SDS011;3086;48.802;9.394;2022-11-20T07:10:03;3.90;;;3.03;;
6111;SDS011;3086;48.802;9.394;2022-11-20T07:13:27;6.53;;;3.23;;
6111;SDS011;3086;48.802;9.394;2022-11-20T07:16:48;3.30;;;3.00;;
6111;SDS011;3086;48.802;9.394;2022-11-20T07:20:10;3.90;;;3.47;;
6111;SDS011;3086;48.802;9.394;2022-11-20T07:23:32;3.70;;;3.40;;
6111;SDS011;3086;48.802;9.394;2022-11-20T07:26:54;3.17;;;2.90;;
6111;SDS011;3086;48.802;9.394;2022-11-20T07:30:17;4.13;;;2.73;;
6111;SDS011;3086;48.802;9.394;2022-11-20T07:33:39;3.47;;;3.10;;
6111;SDS011;3086;48.802;9.394;2022-11-20T07:37:00;4.20;;;3.27;;
6111;SDS011;3086;48.802;9.394;2022-11-20T07:40:23;4.47;;;3.40;;
6111;SDS011;3086;48.802;9.394;2022-11-20T07:43:45;3.67;;;3.37;;
6111;SDS011;3086;48.802;9.394;2022-11-20T07:47:08;4.20;;;3.30;;
6111;SDS011;3086;48.802;9.394;2022-11-20T07:50:29;3.67;;;3.37;;
6111;SDS011;3086;48.802;9.394;2022-11-20T07:53:51;3.37;;;2.87;;
6111;SDS011;3086;48.802;9.394;2022-11-20T07:57:13;4.90;;;3.97;;
6111;SDS011;3086;48.802;9.394;2022-11-20T08:00:35;6.00;;;3.00;;
6111;SDS011;3086;48.802;9.394;2022-11-20T08:03:58;3.30;;;2.90;;
6111;SDS011;3086;48.802;9.394;2022-11-20T08:07:20;3.67;;;3.37;;
6111;SDS011;3086;48.802;9.394;2022-11-20T08:10:41;3.03;;;2.83;;
6111;SDS011;3086;48.802;9.394;2022-11-20T08:14:03;3.03;;;2.80;;
6111;SDS011;3086;48.802;9.394;2022-11-20T08:17:32;3.87;;;2.90;;
6111;SDS011;3086;48.802;9.394;2022-11-20T08:20:55;3.33;;;3.03;;
6111;SDS011;3086;48.802;9.394;2022-11-20T08:24:16;3.20;;;2.90;;
6111;SDS011;3086;48.802;9.394;2022-11-20T08:27:38;2.93;;;2.67;;
6111;SDS011;3086;48.802;9.394;2022-11-20T08:31:00;2.90;;;2.70;;
6111;SDS011;3086;48.802;9.394;2022-11-20T08:34:22;3.10;;;2.80;;
6111;SDS011;3086;48.802;9.394;2022-11-20T08:37:47;3.20;;;2.90;;
6111;SDS011;3086;48.802;9.394;2022-11-20T08:41:08;2.90;;;2.70;;
6111;SDS011;3086;48.802;9.394;2022-11-20T08:44:59;3.63;;;3.30;;
6111;SDS011;3086;48.802;9.394;2022-11-20T08:48:25;4.03;;;2.67;;
6111;SDS011;3086;48.802;9.394;2022-11-20T08:51:46;3.30;;;3.00;;
6111;SDS011;3086;48.802;9.394;2022-11-20T08:55:13;2.97;;;2.77;;
6111;SDS011;3086;48.802;9.394;2022-11-20T08:58:34;2.77;;;2.53;;
6111;SDS011;3086;48.802;9.394;2022-11-20T09:01:56;2.63;;;2.43;;
6111;SDS011;3086;48.802;9.394;2022-11-20T09:05:19;2.80;;;2.60;;
6111;SDS011;3086;48.802;9.394;2022-11-20T09:08:40;2.90;;;2.70;;
6111;SDS011;3086;48.802;9.394;2022-11-20T09:12:04;2.97;;;2.67;;
6111;SDS011;3086;48.802;9.394;2022-11-20T09:15:25;4.40;;;2.70;;
6111;SDS011;3086;48.802;9.394;2022-11-20T09:18:49;2.70;;;2.50;;
6111;SDS011;3086;48.802;9.394;2022-11-20T09:22:11;2.40;;;2.20;;
6111;SDS011;3086;48.802;9.394;2022-11-20T09:25:32;2.73;;;2.53;;
6111;SDS011;3086;48.802;9.394;2022-11-20T09:28:55;2.67;;;2.47;;
6111;SDS011;3086;48.802;9.394;2022-11-20T09:32:17;2.53;;;2.40;;
6111;SDS011;3086;48.802;9.394;2022-11-20T09:35:39;2.60;;;2.40;;
6111;SDS011;3086;48.802;9.394;2022-11-20T09:39:00;2.80;;;2.20;;
6111;SDS011;3086;48.802;9.394;2022-11-20T09:42:27;2.63;;;2.43;;
6111;SDS011;3086;48.802;9.394;2022-11-20T09:46:00;2.60;;;2.40;;
6111;SDS011;3086;48.802;9.394;2022-11-20T09:49:27;3.10;;;2.80;;
6111;SDS011;3086;48.802;9.394;2022-11-20T09:52:58;2.50;;;2.30;;
6111;SDS011;3086;48.802;9.394;2022-11-20T09:56:28;2.80;;;2.40;;
6111;SDS011;3086;48.802;9.394;2022-11-20T09:59:50;2.40;;;2.20;;
6111;SDS011;3086;48.802;9.394;2022-11-20T10:03:18;2.50;;;2.30;;
6111;SDS011;3086;48.802;9.394;2022-11-20T10:06:44;1.90;;;1.80;;
6111;SDS011;3086;48.802;9.394;2022-11-20T10:10:13;2.00;;;1.90;;
6111;SDS011;3086;48.802;9.394;2022-11-20T10:13:38;3.20;;;2.90;;
6111;SDS011;3086;48.802;9.394;2022-11-20T10:17:02;18.43;;;10.77;;
6111;SDS011;3086;48.802;9.394;2022-11-20T10:20:30;2.00;;;1.77;;
6111;SDS011;3086;48.802;9.394;2022-11-20T10:23:59;1.87;;;1.77;;
6111;SDS011;3086;48.802;9.394;2022-11-20T10:27:31;11.83;;;10.70;;
6111;SDS011;3086;48.802;9.394;2022-11-20T10:31:03;6.37;;;5.80;;
6111;SDS011;3086;48.802;9.394;2022-11-20T10:34:28;7.23;;;6.53;;
6111;SDS011;3086;48.802;9.394;2022-11-20T10:37:55;3.93;;;2.33;;
6111;SDS011;3086;48.802;9.394;2022-11-20T10:41:20;2.63;;;2.43;;
6111;SDS011;3086;48.802;9.394;2022-11-20T10:44:49;2.50;;;2.30;;
6111;SDS011;3086;48.802;9.394;2022-11-20T10:48:23;3.67;;;2.60;;
6111;SDS011;3086;48.802;9.394;2022-11-20T10:51:50;2.90;;;2.43;;
6111;SDS011;3086;48.802;9.394;2022-11-20T10:55:22;3.63;;;2.30;;
6111;SDS011;3086;48.802;9.394;2022-11-20T10:58:52;1.67;;;1.60;;
6111;SDS011;3086;48.802;9.394;2022-11-20T11:02:23;2.60;;;2.40;;
6111;SDS011;3086;48.802;9.394;2022-11-20T11:05:46;2.20;;;2.00;;
6111;SDS011;3086;48.802;9.394;2022-11-20T11:09:11;2.20;;;2.10;;
6111;SDS011;3086;48.802;9.394;2022-11-20T11:12:38;4.30;;;4.00;;
6111;SDS011;3086;48.802;9.394;2022-11-20T11:16:05;3.40;;;3.13;;
6111;SDS011;3086;48.802;9.394;2022-11-20T11:19:26;10.40;;;9.30;;
6111;SDS011;3086;48.802;9.394;2022-11-20T11:22:48;10.83;;;9.83;;
6111;SDS011;3086;48.802;9.394;2022-11-20T11:26:18;9.60;;;6.80;;
6111;SDS011;3086;48.802;9.394;2022-11-20T11:29:42;4.30;;;3.90;;
6111;SDS011;3086;48.802;9.394;2022-11-20T11:33:04;3.53;;;3.13;;
6111;SDS011;3086;48.802;9.394;2022-11-20T11:36:27;3.77;;;3.37;;
6111;SDS011;3086;48.802;9.394;2022-11-20T11:39:49;3.00;;;2.80;;
6111;SDS011;3086;48.802;9.394;2022-11-20T11:43:16;2.43;;;2.20;;
6111;SDS011;3086;48.802;9.394;2022-11-20T11:46:54;6.57;;;4.13;;
6111;SDS011;3086;48.802;9.394;2022-11-20T11:50:18;2.70;;;2.50;;
6111;SDS011;3086;48.802;9.394;2022-11-20T11:53:40;4.90;;;3.57;;
6111;SDS011;3086;48.802;9.394;2022-11-20T11:57:05;4.00;;;2.90;;
6111;SDS011;3086;48.802;9.394;2022-11-20T12:00:32;2.90;;;2.63;;
6111;SDS011;3086;48.802;9.394;2022-11-20T12:04:00;3.47;;;2.47;;
6111;SDS011;3086;48.802;9.394;2022-11-20T12:07:28;2.53;;;2.30;;
6111;SDS011;3086;48.802;9.394;2022-11-20T12:10:57;4.13;;;2.83;;
6111;SDS011;3086;48.802;9.394;2022-11-20T12:14:24;2.63;;;2.13;;
6111;SDS011;3086;48.802;9.394;2022-11-20T12:17:51;3.70;;;2.27;;
6111;SDS011;3086;48.802;9.394;2022-11-20T12:21:19;3.30;;;2.00;;
6111;SDS011;3086;48.802;9.394;2022-11-20T12:24:47;2.10;;;2.00;;
6111;SDS011;3086;48.802;9.394;2022-11-20T12:28:16;2.90;;;1.90;;
6111;SDS011;3086;48.802;9.394;2022-11-20T12:31:51;2.60;;;1.73;;
6111;SDS011;3086;48.802;9.394;2022-11-20T12:35:23;2.43;;;2.23;;
6111;SDS011;3086;48.802;9.394;2022-11-20T12:42:42;2.40;;;2.20;;
6111;SDS011;3086;48.802;9.394;2022-11-20T12:46:28;3.70;;;3.40;;
6111;SDS011;3086;48.802;9.394;2022-11-20T12:49:56;2.87;;;2.57;;
6111;SDS011;3086;48.802;9.394;2022-11-20T12:53:25;3.63;;;1.80;;
6111;SDS011;3086;48.802;9.394;2022-11-20T12:56:54;2.20;;;2.00;;
6111;SDS011;3086;48.802;9.394;2022-11-20T13:00:20;6.10;;;2.37;;
6111;SDS011;3086;48.802;9.394;2022-11-20T13:03:43;2.83;;;1.80;;
6111;SDS011;3086;48.802;9.394;2022-11-20T13:07:07;2.40;;;2.00;;
6111;SDS011;3086;48.802;9.394;2022-11-20T13:10:33;2.30;;;2.10;;
6111;SDS011;3086;48.802;9.394;2022-11-20T13:14:03;2.63;;;2.17;;
6111;SDS011;3086;48.802;9.394;2022-11-20T13:17:30;50.83;;;22.20;;
6111;SDS011;3086;48.802;9.394;2022-11-20T13:20:55;5.87;;;3.63;;
6111;SDS011;3086;48.802;9.394;2022-11-20T13:24:22;15.67;;;10.90;;
6111;SDS011;3086;48.802;9.394;2022-11-20T13:27:46;4.83;;;4.43;;
6111;SDS011;3086;48.802;9.394;2022-11-20T13:31:10;3.33;;;2.27;;
6111;SDS011;3086;48.802;9.394;2022-11-20T13:34:55;4.07;;;3.07;;
6111;SDS011;3086;48.802;9.394;2022-11-20T13:38:17;1.60;;;1.50;;
6111;SDS011;3086;48.802;9.394;2022-11-20T13:41:39;1.60;;;1.50;;
6111;SDS011;3086;48.802;9.394;2022-11-20T13:45:02;2.50;;;1.80;;
6111;SDS011;3086;48.802;9.394;2022-11-20T13:48:32;2.63;;;1.80;;
6111;SDS011;3086;48.802;9.394;2022-11-20T13:51:57;1.93;;;1.80;;
6111;SDS011;3086;48.802;9.394;2022-11-20T13:55:26;1.70;;;1.60;;
6111;SDS011;3086;48.802;9.394;2022-11-20T13:58:57;3.80;;;2.23;;
6111;SDS011;3086;48.802;9.394;2022-11-20T14:02:22;1.80;;;1.67;;
6111;SDS011;3086;48.802;9.394;2022-11-20T14:05:49;2.60;;;1.90;;
6111;SDS011;3086;48.802;9.394;2022-11-20T14:09:12;2.50;;;1.90;;
6111;SDS011;3086;48.802;9.394;2022-11-20T14:12:34;4.17;;;1.63;;
6111;SDS011;3086;48.802;9.394;2022-11-20T14:15:57;3.07;;;1.87;;
6111;SDS011;3086;48.802;9.394;2022-11-20T14:19:26;4.37;;;1.87;;
6111;SDS011;3086;48.802;9.394;2022-11-20T14:22:51;3.00;;;2.00;;
6111;SDS011;3086;48.802;9.394;2022-11-20T14:26:14;2.83;;;1.90;;
6111;SDS011;3086;48.802;9.394;2022-11-20T14:29:38;3.37;;;1.77;;
6111;SDS011;3086;48.802;9.394;2022-11-20T14:33:01;3.07;;;2.20;;
6111;SDS011;3086;48.802;9.394;2022-11-20T14:36:24;9.20;;;6.60;;
6111;SDS011;3086;48.802;9.394;2022-11-20T14:39:49;8.50;;;6.37;;
6111;SDS011;3086;48.802;9.394;2022-11-20T14:43:17;6.97;;;4.87;;
6111;SDS011;3086;48.802;9.394;2022-11-20T14:46:40;5.53;;;3.37;;
6111;SDS011;3086;48.802;9.394;2022-11-20T14:50:01;13.77;;;12.37;;
6111;SDS011;3086;48.802;9.394;2022-11-20T14:53:24;4.33;;;3.23;;
6111;SDS011;3086;48.802;9.394;2022-11-20T14:56:54;4.67;;;4.27;;
6111;SDS011;3086;48.802;9.394;2022-11-20T15:00:21;2.37;;;2.00;;
6111;SDS011;3086;48.802;9.394;2022-11-20T15:03:43;2.20;;;2.00;;
6111;SDS011;3086;48.802;9.394;2022-11-20T15:07:04;2.80;;;1.80;;
6111;SDS011;3086;48.802;9.394;2022-11-20T15:10:27;2.50;;;2.00;;
6111;SDS011;3086;48.802;9.394;2022-11-20T15:13:50;2.47;;;2.00;;
6111;SDS011;3086;48.802;9.394;2022-11-20T15:17:11;2.00;;;1.90;;
6111;SDS011;3086;48.802;9.394;2022-11-20T15:20:33;2.17;;;1.97;;
6111;SDS011;3086;48.802;9.394;2022-11-20T15:23:56;3.73;;;2.07;;
6111;SDS011;3086;48.802;9.394;2022-11-20T15:27:19;1.97;;;1.87;;
6111;SDS011;3086;48.802;9.394;2022-11-20T15:30:42;2.10;;;2.00;;
6111;SDS011;3086;48.802;9.394;2022-11-20T15:34:04;1.80;;;1.70;;
6111;SDS011;3086;48.802;9.394;2022-11-20T15:37:27;2.40;;;2.03;;
6111;SDS011;3086;48.802;9.394;2022-11-20T15:40:49;4.23;;;2.00;;
6111;SDS011;3086;48.802;9.394;2022-11-20T15:44:10;3.17;;;2.30;;
6111;SDS011;3086;48.802;9.394;2022-11-20T15:47:34;5.33;;;2.00;;
6111;SDS011;3086;48.802;9.394;2022-11-20T15:50:56;3.77;;;2.10;;
6111;SDS011;3086;48.802;9.394;2022-11-20T15:54:22;2.23;;;2.13;;
6111;SDS011;3086;48.802;9.394;2022-11-20T15:57:43;2.63;;;2.10;;
6111;SDS011;3086;48.802;9.394;2022-11-20T16:01:05;2.90;;;2.20;;
6111;SDS011;3086;48.802;9.394;2022-11-20T16:04:30;2.50;;;2.30;;
6111;SDS011;3086;48.802;9.394;2022-11-20T16:07:52;2.43;;;2.27;;
6111;SDS011;3086;48.802;9.394;2022-11-20T16:11:15;2.20;;;2.10;;
6111;SDS011;3086;48.802;9.394;2022-11-20T16:14:37;2.27;;;2.10;;
6111;SDS011;3086;48.802;9.394;2022-11-20T16:18:17;3.90;;;2.33;;
6111;SDS011;3086;48.802;9.394;2022-11-20T16:21:41;2.23;;;1.87;;
6111;SDS011;3086;48.802;9.394;2022-11-20T16:25:03;3.20;;;2.30;;
6111;SDS011;3086;48.802;9.394;2022-11-20T16:28:25;3.77;;;2.40;;
6111;SDS011;3086;48.802;9.394;2022-11-20T16:31:47;3.70;;;3.20;;
6111;SDS011;3086;48.802;9.394;2022-11-20T16:35:08;3.40;;;2.60;;
6111;SDS011;3086;48.802;9.394;2022-11-20T16:38:31;4.43;;;2.90;;
6111;SDS011;3086;48.802;9.394;2022-11-20T16:41:53;5.03;;;3.33;;
6111;SDS011;3086;48.802;9.394;2022-11-20T16:45:14;7.00;;;2.70;;
6111;SDS011;3086;48.802;9.394;2022-11-20T16:48:36;3.30;;;3.00;;
6111;SDS011;3086;48.802;9.394;2022-11-20T16:51:58;3.00;;;2.80;;
6111;SDS011;3086;48.802;9.394;2022-11-20T16:55:21;2.97;;;2.73;;
6111;SDS011;3086;48.802;9.394;2022-11-20T16:58:42;3.47;;;3.17;;
6111;SDS011;3086;48.802;9.394;2022-11-20T17:02:04;3.60;;;3.30;;
6111;SDS011;3086;48.802;9.394;2022-11-20T17:05:28;4.27;;;3.00;;
6111;SDS011;3086;48.802;9.394;2022-11-20T17:08:50;4.73;;;4.00;;
6111;SDS011;3086;48.802;9.394;2022-11-20T17:12:13;3.73;;;3.23;;
6111;SDS011;3086;48.802;9.394;2022-11-20T17:15:34;5.73;;;3.80;;
6111;SDS011;3086;48.802;9.394;2022-11-20T17:18:56;4.80;;;3.97;;
6111;SDS011;3086;48.802;9.394;2022-11-20T17:22:18;3.00;;;2.70;;
6111;SDS011;3086;48.802;9.394;2022-11-20T17:25:40;3.00;;;2.70;;
6111;SDS011;3086;48.802;9.394;2022-11-20T17:29:04;4.07;;;2.67;;
6111;SDS011;3086;48.802;9.394;2022-11-20T17:32:26;3.67;;;3.20;;
6111;SDS011;3086;48.802;9.394;2022-11-20T17:35:48;5.67;;;4.60;;
6111;SDS011;3086;48.802;9.394;2022-11-20T17:39:10;6.43;;;4.90;;
6111;SDS011;3086;48.802;9.394;2022-11-20T17:42:32;5.00;;;4.03;;
6111;SDS011;3086;48.802;9.394;2022-11-20T17:45:57;4.20;;;3.30;;
6111;SDS011;3086;48.802;9.394;2022-11-20T17:49:18;4.47;;;3.90;;
6111;SDS011;3086;48.802;9.394;2022-11-20T17:52:40;5.37;;;3.27;;
6111;SDS011;3086;48.802;9.394;2022-11-20T17:56:02;6.50;;;4.80;;
6111;SDS011;3086;48.802;9.394;2022-11-20T17:59:42;4.33;;;3.50;;
6111;SDS011;3086;48.802;9.394;2022-11-20T18:03:05;3.40;;;3.07;;
6111;SDS011;3086;48.802;9.394;2022-11-20T18:06:27;3.23;;;2.90;;
6111;SDS011;3086;48.802;9.394;2022-11-20T18:10:04;3.97;;;3.47;;
6111;SDS011;3086;48.802;9.394;2022-11-20T18:13:41;3.50;;;3.10;;
6111;SDS011;3086;48.802;9.394;2022-11-20T18:17:20;5.30;;;2.70;;
6111;SDS011;3086;48.802;9.394;2022-11-20T18:20:44;2.60;;;2.43;;
6111;SDS011;3086;48.802;9.394;2022-11-20T18:24:06;2.80;;;2.50;;
6111;SDS011;3086;48.802;9.394;2022-11-20T18:27:37;2.73;;;2.53;;
6111;SDS011;3086;48.802;9.394;2022-11-20T18:31:26;2.50;;;2.30;;
6111;SDS011;3086;48.802;9.394;2022-11-20T18:34:52;2.60;;;2.40;;
6111;SDS011;3086;48.802;9.394;2022-11-20T18:38:19;4.13;;;2.80;;
6111;SDS011;3086;48.802;9.394;2022-11-20T18:41:43;2.40;;;2.20;;
6111;SDS011;3086;48.802;9.394;2022-11-20T18:45:22;2.50;;;2.30;;
6111;SDS011;3086;48.802;9.394;2022-11-20T18:48:48;3.23;;;2.57;;
6111;SDS011;3086;48.802;9.394;2022-11-20T18:52:10;2.90;;;2.67;;
6111;SDS011;3086;48.802;9.394;2022-11-20T18:55:36;2.67;;;2.10;;
6111;SDS011;3086;48.802;9.394;2022-11-20T18:58:58;3.10;;;2.57;;
6111;SDS011;3086;48.802;9.394;2022-11-20T19:02:24;3.73;;;2.90;;
6111;SDS011;3086;48.802;9.394;2022-11-20T19:05:51;3.87;;;3.10;;
6111;SDS011;3086;48.802;9.394;2022-11-20T19:09:12;4.97;;;3.47;;
6111;SDS011;3086;48.802;9.394;2022-11-20T19:12:38;7.23;;;5.23;;
6111;SDS011;3086;48.802;9.394;2022-11-20T19:16:03;13.63;;;8.47;;
6111;SDS011;3086;48.802;9.394;2022-11-20T19:19:26;33.63;;;13.53;;
6111;SDS011;3086;48.802;9.394;2022-11-20T19:22:48;19.77;;;11.43;;
6111;SDS011;3086;48.802;9.394;2022-11-20T19:26:13;6.23;;;5.63;;
6111;SDS011;3086;48.802;9.394;2022-11-20T19:29:44;4.87;;;4.37;;
6111;SDS011;3086;48.802;9.394;2022-11-20T19:33:26;4.23;;;3.83;;
6111;SDS011;3086;48.802;9.394;2022-11-20T19:36:52;3.10;;;2.90;;
6111;SDS011;3086;48.802;9.394;2022-11-20T19:40:19;2.87;;;2.40;;
6111;SDS011;3086;48.802;9.394;2022-11-20T19:43:49;2.40;;;2.20;;
6111;SDS011;3086;48.802;9.394;2022-11-20T19:47:31;2.60;;;2.30;;
6111;SDS011;3086;48.802;9.394;2022-11-20T19:51:09;2.40;;;2.20;;
6111;SDS011;3086;48.802;9.394;2022-11-20T19:54:33;2.43;;;2.23;;
6111;SDS011;3086;48.802;9.394;2022-11-20T19:57:59;4.33;;;3.00;;
6111;SDS011;3086;48.802;9.394;2022-11-20T20:01:49;2.90;;;2.70;;
6111;SDS011;3086;48.802;9.394;2022-11-20T20:09:28;2.77;;;2.57;;
6111;SDS011;3086;48.802;9.394;2022-11-20T20:12:49;2.30;;;2.10;;
6111;SDS011;3086;48.802;9.394;2022-11-20T20:16:11;3.93;;;3.50;;
6111;SDS011;3086;48.802;9.394;2022-11-20T20:19:34;6.00;;;4.30;;
6111;SDS011;3086;48.802;9.394;2022-11-20T20:22:55;9.20;;;8.10;;
6111;SDS011;3086;48.802;9.394;2022-11-20T20:26:18;4.80;;;4.30;;
6111;SDS011;3086;48.802;9.394;2022-11-20T20:29:40;2.80;;;2.60;;
6111;SDS011;3086;48.802;9.394;2022-11-20T20:33:02;3.13;;;2.83;;
6111;SDS011;3086;48.802;9.394;2022-11-20T20:36:24;3.17;;;2.63;;
6111;SDS011;3086;48.802;9.394;2022-11-20T20:39:45;1.80;;;1.70;;
6111;SDS011;3086;48.802;9.394;2022-11-20T20:43:08;2.40;;;2.17;;
6111;SDS011;3086;48.802;9.394;2022-11-20T20:46:30;2.87;;;1.70;;
6111;SDS011;3086;48.802;9.394;2022-11-20T20:49:52;2.30;;;2.13;;
6111;SDS011;3086;48.802;9.394;2022-11-20T20:53:13;2.53;;;1.90;;
6111;SDS011;3086;48.802;9.394;2022-11-20T20:56:35;2.30;;;2.10;;
6111;SDS011;3086;48.802;9.394;2022-11-20T20:59:58;4.07;;;3.63;;
6111;SDS011;3086;48.802;9.394;2022-11-20T21:03:19;2.10;;;2.00;;
6111;SDS011;3086;48.802;9.394;2022-11-20T21:06:41;3.47;;;2.80;;
6111;SDS011;3086;48.802;9.394;2022-11-20T21:10:03;3.80;;;3.30;;
6111;SDS011;3086;48.802;9.394;2022-11-20T21:13:24;3.87;;;3.10;;
6111;SDS011;3086;48.802;9.394;2022-11-20T21:16:47;2.67;;;2.20;;